»·PEaware :: N1SM KOAK-KAUN

N1SM :: KOAK-KAUN

FLIGHT INFORMATION

Flight Status: Arrived
Operator: Privately registered:
United States
More flights under this callsign
Pilot: Max H. (24278)
Aircraft: CESSNA T210 TURBO CENTURION
(T210)
More flights by this aircraft type
Origin: KOAK Metro Oakland Intl
United States
Destination: KAUN Auburn Mun
United States
More flights between these airports :: More routes between these airports
Route: OAK V6 SAC
File this flight plan on PilotEdge
Remarks:
Altitude:
(Current/Filed)
5,000ft
Speed:
(Current/Filed)
150kts
Departed: 22-Feb-21 09:35 PM
Arrived: 22-Feb-21 10:22 PM
Distance/Time
Traveled:
91nm/0:46
Distance/Time
To Go:
Arrived

Flight Plot

Page will automatically refresh every two minutes.

Flight plan parsing failed; only flown route is shown


Map Options




Map Legend


Flown Route
Filed Route
Departure Airport
Arrival Airport
Navaid (VOR, NDB)
Fix

Horizontal Profiles

Position Reports

Time Latitude Longitude Heading Altitude Ground
Speed
22-Feb-21 21:09 37.729298 -122.212087 307 10ft 0kts
22-Feb-21 21:10 37.729298 -122.212087 307 10ft 0kts
22-Feb-21 21:11 37.729298 -122.212087 307 10ft 0kts
22-Feb-21 21:12 37.729298 -122.212087 307 10ft 0kts
22-Feb-21 21:13 37.729298 -122.212087 307 10ft 0kts
22-Feb-21 21:14 37.729298 -122.212087 307 10ft 0kts
22-Feb-21 21:15 37.729298 -122.212087 307 10ft 0kts
22-Feb-21 21:16 37.729298 -122.212087 307 10ft 0kts
22-Feb-21 21:17 37.729298 -122.212087 307 10ft 0kts
22-Feb-21 21:22 37.729298 -122.212087 307 10ft 0kts
22-Feb-21 21:23 37.729298 -122.212087 307 10ft 0kts
22-Feb-21 21:24 37.729298 -122.212087 307 10ft 0kts
22-Feb-21 21:25 37.729298 -122.212087 307 10ft 0kts
22-Feb-21 21:26 37.729298 -122.212087 307 10ft 0kts
22-Feb-21 21:27 37.728204 -122.211962 119 10ft 12kts
22-Feb-21 21:28 37.726792 -122.207584 112 10ft 20kts
22-Feb-21 21:29 37.725658 -122.204521 183 10ft 0kts
22-Feb-21 21:30 37.725648 -122.204522 185 10ft 0kts
22-Feb-21 21:31 37.725648 -122.204522 185 10ft 0kts
22-Feb-21 21:32 37.725648 -122.204522 185 10ft 0kts
22-Feb-21 21:33 37.725648 -122.204522 185 10ft 0kts
22-Feb-21 21:34 37.726688 -122.210500 291 46ft 79kts
22-Feb-21 21:35 37.734901 -122.235796 291 1307ft 83kts
22-Feb-21 21:36 37.749131 -122.259895 321 2528ft 93kts
22-Feb-21 21:37 37.771175 -122.278444 326 3735ft 97kts
22-Feb-21 21:38 37.794858 -122.264669 36 4917ft 108kts
22-Feb-21 21:39 37.824427 -122.232004 37 4995ft 162kts
22-Feb-21 21:40 37.859658 -122.193582 38 4990ft 169kts
22-Feb-21 21:41 37.894770 -122.155387 42 4990ft 161kts
22-Feb-21 21:43 37.928313 -122.118845 42 4990ft 157kts
22-Feb-21 21:44 37.961443 -122.082727 42 4990ft 157kts
22-Feb-21 21:45 37.994638 -122.046497 42 4990ft 157kts
22-Feb-21 21:46 38.027799 -122.010260 42 4990ft 157kts
22-Feb-21 21:47 38.060918 -121.974026 42 4990ft 157kts
22-Feb-21 21:48 38.093973 -121.937812 42 4989ft 157kts
22-Feb-21 21:49 38.127224 -121.901339 43 4987ft 158kts
22-Feb-21 21:50 38.161330 -121.863969 38 4987ft 167kts
22-Feb-21 21:51 38.196742 -121.825073 38 4991ft 167kts
22-Feb-21 21:52 38.231848 -121.786454 37 4991ft 166kts
22-Feb-21 21:53 38.266667 -121.748096 37 4991ft 164kts
22-Feb-21 21:54 38.301175 -121.709999 38 4994ft 164kts
22-Feb-21 21:55 38.335498 -121.672049 38 4996ft 162kts
22-Feb-21 21:56 38.369448 -121.634469 38 4996ft 161kts
22-Feb-21 21:57 38.403129 -121.597141 39 4997ft 160kts
22-Feb-21 21:58 38.436796 -121.559780 39 4995ft 160kts
22-Feb-21 21:59 38.472439 -121.525827 33 4994ft 160kts
22-Feb-21 22:00 38.508402 -121.493052 33 4993ft 160kts
22-Feb-21 22:01 38.544570 -121.459976 34 4991ft 160kts
22-Feb-21 22:02 38.580731 -121.426735 34 4991ft 159kts
22-Feb-21 22:03 38.616714 -121.393758 34 4991ft 159kts
22-Feb-21 22:04 38.652461 -121.360966 34 4990ft 158kts
22-Feb-21 22:05 38.688273 -121.328074 35 4990ft 158kts
22-Feb-21 22:06 38.723859 -121.295381 36 4989ft 158kts
22-Feb-21 22:06 38.753554 -121.268016 35 5001ft 158kts
22-Feb-21 22:08 38.795307 -121.229517 36 5010ft 158kts
22-Feb-21 22:09 38.835723 -121.216671 331 4703ft 176kts
22-Feb-21 22:09 38.854220 -121.264142 283 3940ft 188kts
22-Feb-21 22:11 38.867252 -121.340431 283 3026ft 182kts
22-Feb-21 22:11 38.886436 -121.379810 4 3010ft 164kts
22-Feb-21 22:12 38.917278 -121.340935 51 3017ft 157kts
22-Feb-21 22:13 38.936903 -121.294950 83 2984ft 144kts
22-Feb-21 22:15 38.942266 -121.235801 83 2993ft 141kts
22-Feb-21 22:16 38.946265 -121.186679 83 2985ft 120kts
22-Feb-21 22:16 38.949210 -121.151421 84 3000ft 132kts
22-Feb-21 22:17 38.943284 -121.107080 96 2662ft 117kts
22-Feb-21 22:18 38.942381 -121.067670 87 2608ft 98kts
22-Feb-21 22:19 38.955861 -121.057539 304 2806ft 88kts
22-Feb-21 22:20 38.954491 -121.085609 263 1514ft 48kts
22-Feb-21 22:21 38.953926 -121.087378 84 1514ft 0kts

Navigation Log

Ident Type
Flight plan parsing failed, navigation log unavailable